www.cux-wetter.de
Wetterdaten: Montag, 12.03.2007
Datum Zeit Temp. A. Feuchte A. Luftdruck Regen Wind Richtung Richtung Sonnenschein Solar Taupunkt Windchill Windben
12.03.2007 00:09 7,3 C 88 % 1028,5 hPa 0,0 l/m 11,1 km/h (2 Bft) SW 235 0 min 0 W/m 5,4 C 3,9 C 11,1 km/h (2 Bft)
12.03.2007 00:24 7,2 C 90 % 1027,5 hPa 0,0 l/m 9,5 km/h (2 Bft) W-SW 245 0 min 0 W/m 5,7 C 4,8 C 9,5 km/h (2 Bft)
12.03.2007 00:39 7,2 C 91 % 1027,5 hPa 0,0 l/m 14,6 km/h (3 Bft) W-SW 245 0 min 0 W/m 5,8 C 1,9 C 14,6 km/h (3 Bft)
12.03.2007 00:54 7,3 C 91 % 1027,5 hPa 0,0 l/m 16,1 km/h (3 Bft) W-SW 240 0 min 0 W/m 5,9 C 1,4 C 16,1 km/h (3 Bft)
12.03.2007 01:09 7,3 C 91 % 1027,5 hPa 0,0 l/m 15,8 km/h (3 Bft) SW 230 0 min 0 W/m 5,9 C 1,5 C 15,8 km/h (3 Bft)
12.03.2007 01:24 7,0 C 90 % 1027,5 hPa 0,0 l/m 10,0 km/h (2 Bft) SW 220 0 min 0 W/m 5,5 C 4,3 C 10,0 km/h (2 Bft)
12.03.2007 01:39 6,6 C 90 % 1027,5 hPa 0,0 l/m 10,6 km/h (2 Bft) SW 220 0 min 0 W/m 5,1 C 3,4 C 10,6 km/h (2 Bft)
12.03.2007 01:54 6,1 C 90 % 1027,5 hPa 0,0 l/m 9,1 km/h (2 Bft) SW 215 0 min 0 W/m 4,6 C 3,9 C 9,1 km/h (2 Bft)
12.03.2007 02:09 6,0 C 91 % 1027,5 hPa 0,0 l/m 10,4 km/h (2 Bft) SW 215 0 min 0 W/m 4,6 C 2,9 C 10,4 km/h (2 Bft)
12.03.2007 02:24 6,2 C 92 % 1027,5 hPa 0,0 l/m 11,7 km/h (2 Bft) SW 230 0 min 0 W/m 5,0 C 2,3 C 11,7 km/h (2 Bft)
12.03.2007 02:39 6,3 C 92 % 1027,5 hPa 0,0 l/m 10,5 km/h (2 Bft) SW 230 0 min 0 W/m 5,1 C 3,2 C 10,5 km/h (2 Bft)
12.03.2007 02:54 6,4 C 92 % 1027,5 hPa 0,0 l/m 15,6 km/h (3 Bft) SW 235 0 min 0 W/m 5,2 C 0,5 C 15,6 km/h (3 Bft)
12.03.2007 03:09 6,6 C 93 % 1027,5 hPa 0,0 l/m 13,5 km/h (3 Bft) SW 235 0 min 0 W/m 5,6 C 1,8 C 13,5 km/h (3 Bft)
12.03.2007 03:24 6,8 C 92 % 1027,5 hPa 0,0 l/m 17,8 km/h (3 Bft) W-SW 240 0 min 0 W/m 5,6 C 0,0 C 17,8 km/h (3 Bft)
12.03.2007 03:39 6,8 C 91 % 1027,5 hPa 0,0 l/m 18,8 km/h (3 Bft) SW 225 0 min 0 W/m 5,4 C -0,4 C 18,8 km/h (3 Bft)
12.03.2007 03:54 6,5 C 91 % 1027,5 hPa 0,0 l/m 13,6 km/h (3 Bft) SW 235 0 min 0 W/m 5,1 C 1,6 C 13,6 km/h (3 Bft)
12.03.2007 04:09 6,5 C 91 % 1026,5 hPa 0,0 l/m 11,5 km/h (2 Bft) W-SW 240 0 min 0 W/m 5,1 C 2,8 C 11,5 km/h (2 Bft)
12.03.2007 04:24 6,5 C 91 % 1026,5 hPa 0,0 l/m 13,5 km/h (3 Bft) W-SW 240 0 min 0 W/m 5,1 C 1,7 C 13,5 km/h (3 Bft)
12.03.2007 04:39 6,4 C 91 % 1026,5 hPa 0,0 l/m 13,5 km/h (3 Bft) SW 230 0 min 0 W/m 5,0 C 1,5 C 13,5 km/h (3 Bft)
12.03.2007 04:54 6,2 C 91 % 1026,5 hPa 0,0 l/m 13,1 km/h (3 Bft) SW 225 0 min 0 W/m 4,8 C 1,5 C 13,1 km/h (3 Bft)
12.03.2007 05:09 6,3 C 91 % 1026,5 hPa 0,0 l/m 16,6 km/h (3 Bft) SW 220 0 min 0 W/m 4,9 C -0,1 C 16,6 km/h (3 Bft)
12.03.2007 05:24 6,0 C 90 % 1026,5 hPa 0,0 l/m 16,0 km/h (3 Bft) SW 230 0 min 0 W/m 4,5 C -0,2 C 16,0 km/h (3 Bft)
12.03.2007 05:39 5,7 C 90 % 1026,5 hPa 0,0 l/m 13,6 km/h (3 Bft) S-SW 210 0 min 0 W/m 4,2 C 0,7 C 13,6 km/h (3 Bft)
12.03.2007 05:54 5,7 C 91 % 1026,5 hPa 0,0 l/m 9,2 km/h (2 Bft) SW 225 0 min 0 W/m 4,3 C 3,4 C 9,2 km/h (2 Bft)
12.03.2007 06:09 5,7 C 91 % 1026,5 hPa 0,0 l/m 10,5 km/h (2 Bft) SW 235 0 min 0 W/m 4,3 C 2,5 C 10,5 km/h (2 Bft)
12.03.2007 06:24 6,1 C 91 % 1026,5 hPa 0,0 l/m 12,8 km/h (3 Bft) SW 235 0 min 0 W/m 4,7 C 1,6 C 12,8 km/h (3 Bft)
12.03.2007 06:39 6,2 C 90 % 1026,5 hPa 0,0 l/m 11,0 km/h (2 Bft) W-SW 240 0 min 0 W/m 4,7 C 2,7 C 11,0 km/h (2 Bft)
12.03.2007 06:54 6,0 C 90 % 1026,5 hPa 0,0 l/m 10,4 km/h (2 Bft) SW 230 0 min 0 W/m 4,5 C 2,9 C 10,4 km/h (2 Bft)
12.03.2007 07:09 6,3 C 90 % 1026,5 hPa 0,0 l/m 11,6 km/h (2 Bft) SW 220 0 min 0 W/m 4,8 C 2,5 C 11,6 km/h (2 Bft)
12.03.2007 07:24 6,8 C 87 % 1026,5 hPa 0,0 l/m 13,9 km/h (3 Bft) W-SW 245 0 min 0 W/m 4,8 C 1,8 C 13,9 km/h (3 Bft)
12.03.2007 07:39 7,4 C 85 % 1026,5 hPa 0,0 l/m 20,4 km/h (4 Bft) W-SW 245 0 min 0 W/m 5,0 C -0,2 C 20,4 km/h (4 Bft)
12.03.2007 07:54 7,9 C 83 % 1026,5 hPa 0,0 l/m 17,5 km/h (3 Bft) W-SW 245 0 min 0 W/m 5,2 C 1,5 C 17,5 km/h (3 Bft)
12.03.2007 08:09 8,2 C 81 % 1026,5 hPa 0,0 l/m 19,8 km/h (3 Bft) W-SW 250 0 min 0 W/m 5,1 C 1,0 C 19,8 km/h (3 Bft)
12.03.2007 08:24 8,5 C 80 % 1026,5 hPa 0,0 l/m 19,6 km/h (3 Bft) W-SW 245 0 min 0 W/m 5,3 C 1,5 C 19,6 km/h (3 Bft)
12.03.2007 08:39 9,3 C 77 % 1026,5 hPa 0,0 l/m 20,1 km/h (4 Bft) SW 235 0 min 0 W/m 5,5 C 2,3 C 20,1 km/h (4 Bft)
12.03.2007 08:54 9,7 C 75 % 1026,5 hPa 0,0 l/m 17,7 km/h (3 Bft) W-SW 250 0 min 0 W/m 5,5 C 3,7 C 17,7 km/h (3 Bft)
12.03.2007 09:09 10,2 C 74 % 1026,5 hPa 0,0 l/m 17,3 km/h (3 Bft) SW 235 0 min 0 W/m 5,8 C 4,5 C 17,3 km/h (3 Bft)
12.03.2007 09:24 10,8 C 72 % 1026,5 hPa 0,0 l/m 23,8 km/h (4 Bft) W-SW 245 0 min 0 W/m 6,0 C 3,2 C 23,8 km/h (4 Bft)
12.03.2007 09:39 11,2 C 69 % 1026,5 hPa 0,0 l/m 17,1 km/h (3 Bft) SW 230 0 min 0 W/m 5,7 C 5,8 C 17,1 km/h (3 Bft)
12.03.2007 09:54 11,7 C 67 % 1027,5 hPa 0,0 l/m 21,0 km/h (4 Bft) W-SW 250 0 min 0 W/m 5,8 C 5,2 C 21,0 km/h (4 Bft)
12.03.2007 10:09 12,4 C 64 % 1026,5 hPa 0,0 l/m 24,0 km/h (4 Bft) W-SW 255 0 min 0 W/m 5,8 C 5,3 C 24,0 km/h (4 Bft)
12.03.2007 10:24 12,9 C 64 % 1026,5 hPa 0,0 l/m 25,1 km/h (4 Bft) W-SW 250 0 min 0 W/m 6,3 C 5,7 C 25,1 km/h (4 Bft)
12.03.2007 10:39 13,5 C 63 % 1026,5 hPa 0,0 l/m 21,4 km/h (4 Bft) W-SW 250 0 min 0 W/m 6,6 C 7,4 C 21,4 km/h (4 Bft)
12.03.2007 10:54 13,9 C 61 % 1026,5 hPa 0,0 l/m 25,6 km/h (4 Bft) W-SW 240 0 min 0 W/m 6,5 C 7,0 C 25,6 km/h (4 Bft)
12.03.2007 11:09 14,1 C 56 % 1026,5 hPa 0,0 l/m 24,7 km/h (4 Bft) W-SW 255 0 min 0 W/m 5,5 C 7,5 C 24,7 km/h (4 Bft)
12.03.2007 11:24 14,4 C 58 % 1026,5 hPa 0,0 l/m 23,1 km/h (4 Bft) W-SW 255 0 min 0 W/m 6,2 C 8,2 C 23,1 km/h (4 Bft)
12.03.2007 11:39 14,6 C 55 % 1026,5 hPa 0,0 l/m 24,1 km/h (4 Bft) W-SW 245 0 min 0 W/m 5,7 C 8,3 C 24,1 km/h (4 Bft)
12.03.2007 11:54 14,8 C 55 % 1026,5 hPa 0,0 l/m 29,1 km/h (5 Bft) W-SW 245 0 min 0 W/m 5,8 C 7,6 C 29,1 km/h (5 Bft)
12.03.2007 12:09 15,0 C 57 % 1026,5 hPa 0,0 l/m 24,0 km/h (4 Bft) W-SW 255 0 min 0 W/m 6,6 C 8,8 C 24,0 km/h (4 Bft)
12.03.2007 12:24 15,3 C 52 % 1026,5 hPa 0,0 l/m 24,6 km/h (4 Bft) W-SW 250 0 min 0 W/m 5,5 C 9,1 C 24,6 km/h (4 Bft)
12.03.2007 12:39 15,5 C 57 % 1026,5 hPa 0,0 l/m 22,8 km/h (4 Bft) W-SW 240 0 min 0 W/m 7,0 C 9,7 C 22,8 km/h (4 Bft)
12.03.2007 12:54 15,9 C 56 % 1026,5 hPa 0,0 l/m 16,3 km/h (3 Bft) SW 235 0 min 0 W/m 7,1 C 11,9 C 16,3 km/h (3 Bft)
12.03.2007 13:09 15,6 C 57 % 1026,5 hPa 0,0 l/m 20,3 km/h (4 Bft) W-SW 255 0 min 0 W/m 7,1 C 10,4 C 20,3 km/h (4 Bft)
12.03.2007 13:24 15,5 C 58 % 1026,5 hPa 0,0 l/m 21,0 km/h (4 Bft) W-SW 250 0 min 0 W/m 7,3 C 10,2 C 21,0 km/h (4 Bft)
12.03.2007 13:39 15,4 C 59 % 1026,5 hPa 0,0 l/m 19,2 km/h (3 Bft) W 260 0 min 0 W/m 7,4 C 10,5 C 19,2 km/h (3 Bft)
12.03.2007 13:54 15,7 C 56 % 1025,5 hPa 0,0 l/m 18,7 km/h (3 Bft) W-SW 250 0 min 0 W/m 6,9 C 11,0 C 18,7 km/h (3 Bft)
12.03.2007 14:09 15,6 C 56 % 1025,5 hPa 0,0 l/m 21,7 km/h (4 Bft) W-SW 255 0 min 0 W/m 6,9 C 10,1 C 21,7 km/h (4 Bft)
12.03.2007 14:24 15,9 C 57 % 1025,5 hPa 0,0 l/m 17,2 km/h (3 Bft) W-SW 250 0 min 0 W/m 7,4 C 11,6 C 17,2 km/h (3 Bft)
12.03.2007 14:39 15,9 C 58 % 1025,5 hPa 0,0 l/m 21,1 km/h (4 Bft) W-SW 245 0 min 0 W/m 7,6 C 10,6 C 21,1 km/h (4 Bft)
12.03.2007 14:54 15,8 C 58 % 1025,5 hPa 0,0 l/m 16,4 km/h (3 Bft) W-NW 295 0 min 0 W/m 7,6 C 11,7 C 16,4 km/h (3 Bft)
12.03.2007 15:09 15,5 C 55 % 1025,5 hPa 0,0 l/m 17,3 km/h (3 Bft) W 265 0 min 0 W/m 6,5 C 11,1 C 17,3 km/h (3 Bft)
12.03.2007 15:24 15,5 C 52 % 1025,5 hPa 0,0 l/m 17,2 km/h (3 Bft) W-SW 245 0 min 0 W/m 5,7 C 11,1 C 17,2 km/h (3 Bft)
12.03.2007 15:39 15,3 C 54 % 1025,5 hPa 0,0 l/m 19,6 km/h (3 Bft) W-SW 255 0 min 0 W/m 6,0 C 10,2 C 19,6 km/h (3 Bft)
12.03.2007 15:54 15,2 C 53 % 1025,5 hPa 0,0 l/m 16,3 km/h (3 Bft) W-SW 250 0 min 0 W/m 5,7 C 11,0 C 16,3 km/h (3 Bft)
12.03.2007 16:09 15,0 C 54 % 1024,5 hPa 0,0 l/m 16,4 km/h (3 Bft) W-SW 255 0 min 0 W/m 5,8 C 10,7 C 16,4 km/h (3 Bft)
12.03.2007 16:24 15,0 C 56 % 1024,5 hPa 0,0 l/m 15,3 km/h (3 Bft) W-SW 250 0 min 0 W/m 6,3 C 11,1 C 15,3 km/h (3 Bft)
12.03.2007 16:39 14,8 C 56 % 1024,5 hPa 0,0 l/m 14,3 km/h (3 Bft) W-SW 250 0 min 0 W/m 6,1 C 11,2 C 14,3 km/h (3 Bft)
12.03.2007 16:54 14,6 C 57 % 1024,5 hPa 0,0 l/m 12,1 km/h (2 Bft) W-SW 255 0 min 0 W/m 6,2 C 11,8 C 12,1 km/h (2 Bft)
12.03.2007 17:09 14,3 C 57 % 1024,5 hPa 0,0 l/m 11,6 km/h (2 Bft) W-SW 255 0 min 0 W/m 5,9 C 11,6 C 11,6 km/h (2 Bft)
12.03.2007 17:24 13,9 C 59 % 1024,5 hPa 0,0 l/m 11,6 km/h (2 Bft) W-SW 255 0 min 0 W/m 6,0 C 11,2 C 11,6 km/h (2 Bft)
12.03.2007 17:39 13,4 C 62 % 1024,5 hPa 0,0 l/m 7,4 km/h (2 Bft) W-SW 245 0 min 0 W/m 6,3 C 12,8 C 7,4 km/h (2 Bft)
12.03.2007 17:54 12,7 C 63 % 1024,5 hPa 0,0 l/m 5,6 km/h (2 Bft) W-SW 250 0 min 0 W/m 5,8 C 12,7 C 5,6 km/h (2 Bft)
12.03.2007 18:09 11,8 C 65 % 1024,5 hPa 0,0 l/m 4,2 km/h (1 Bft) W-SW 250 0 min 0 W/m 5,4 C 11,8 C 4,2 km/h (1 Bft)
12.03.2007 18:24 11,0 C 66 % 1024,5 hPa 0,0 l/m 0,0 km/h (0 Bft) W-SW 245 0 min 0 W/m 4,9 C 11,0 C 0,0 km/h (0 Bft)
12.03.2007 18:39 10,5 C 68 % 1024,5 hPa 0,0 l/m 0,0 km/h (0 Bft) W-SW 250 0 min 0 W/m 4,8 C 10,5 C 0,0 km/h (0 Bft)
12.03.2007 18:54 10,0 C 69 % 1024,5 hPa 0,0 l/m 0,0 km/h (0 Bft) W-SW 250 0 min 0 W/m 4,6 C 10,0 C 0,0 km/h (0 Bft)
12.03.2007 19:09 9,5 C 70 % 1024,5 hPa 0,0 l/m 0,0 km/h (0 Bft) W-SW 245 0 min 0 W/m 4,3 C 9,5 C 0,0 km/h (0 Bft)
12.03.2007 19:24 9,2 C 71 % 1024,5 hPa 0,0 l/m 0,0 km/h (0 Bft) W-SW 245 0 min 0 W/m 4,2 C 9,2 C 0,0 km/h (0 Bft)
12.03.2007 19:39 8,7 C 73 % 1024,5 hPa 0,0 l/m 0,0 km/h (0 Bft) W-SW 250 0 min 0 W/m 4,1 C 8,7 C 0,0 km/h (0 Bft)
12.03.2007 19:54 8,4 C 74 % 1025,5 hPa 0,0 l/m 0,0 km/h (0 Bft) W-SW 250 0 min 0 W/m 4,0 C 8,4 C 0,0 km/h (0 Bft)
12.03.2007 20:09 8,1 C 75 % 1025,5 hPa 0,0 l/m 0,0 km/h (0 Bft) W-SW 250 0 min 0 W/m 3,9 C 8,1 C 0,0 km/h (0 Bft)
12.03.2007 20:24 7,9 C 77 % 1025,5 hPa 0,0 l/m 0,0 km/h (0 Bft) W-SW 250 0 min 0 W/m 4,1 C 7,9 C 0,0 km/h (0 Bft)
12.03.2007 20:39 7,7 C 78 % 1025,5 hPa 0,0 l/m 2,1 km/h (1 Bft) W-SW 250 0 min 0 W/m 4,1 C 7,7 C 2,1 km/h (1 Bft)
12.03.2007 20:54 7,6 C 78 % 1025,5 hPa 0,0 l/m 3,1 km/h (1 Bft) W-SW 250 0 min 0 W/m 4,0 C 7,6 C 3,1 km/h (1 Bft)
12.03.2007 21:09 7,4 C 79 % 1025,5 hPa 0,0 l/m 3,2 km/h (1 Bft) W-SW 250 0 min 0 W/m 4,0 C 7,4 C 3,2 km/h (1 Bft)
12.03.2007 21:24 7,4 C 79 % 1025,5 hPa 0,0 l/m 4,8 km/h (1 Bft) W-NW 285 0 min 0 W/m 4,0 C 7,4 C 4,8 km/h (1 Bft)
12.03.2007 21:39 7,2 C 80 % 1025,5 hPa 0,0 l/m 2,1 km/h (1 Bft) W 280 0 min 0 W/m 4,0 C 7,2 C 2,1 km/h (1 Bft)
12.03.2007 21:54 7,0 C 81 % 1025,5 hPa 0,0 l/m 0,0 km/h (0 Bft) W 280 0 min 0 W/m 4,0 C 7,0 C 0,0 km/h (0 Bft)
12.03.2007 22:09 6,8 C 81 % 1025,5 hPa 0,0 l/m 2,8 km/h (1 Bft) SW 220 0 min 0 W/m 3,8 C 6,8 C 2,8 km/h (1 Bft)
12.03.2007 22:24 6,2 C 81 % 1025,5 hPa 0,0 l/m 0,0 km/h (0 Bft) S 190 0 min 0 W/m 3,2 C 6,2 C 0,0 km/h (0 Bft)
12.03.2007 22:39 5,9 C 82 % 1025,5 hPa 0,0 l/m 0,0 km/h (0 Bft) S 190 0 min 0 W/m 3,1 C 5,9 C 0,0 km/h (0 Bft)
12.03.2007 22:54 5,8 C 83 % 1025,5 hPa 0,0 l/m 0,0 km/h (0 Bft) S 190 0 min 0 W/m 3,1 C 5,8 C 0,0 km/h (0 Bft)
12.03.2007 23:09 5,7 C 84 % 1025,5 hPa 0,0 l/m 0,0 km/h (0 Bft) S 190 0 min 0 W/m 3,2 C 5,7 C 0,0 km/h (0 Bft)
12.03.2007 23:24 5,6 C 84 % 1025,5 hPa 0,0 l/m 0,0 km/h (0 Bft) S 190 0 min 0 W/m 3,1 C 5,6 C 0,0 km/h (0 Bft)
12.03.2007 23:39 5,5 C 85 % 1025,5 hPa 0,0 l/m 0,0 km/h (0 Bft) S 190 0 min 0 W/m 3,2 C 5,5 C 0,0 km/h (0 Bft)
12.03.2007 23:54 5,4 C 85 % 1025,5 hPa 0,0 l/m 0,0 km/h (0 Bft) S 190 0 min 0 W/m 3,1 C 5,4 C 0,0 km/h (0 Bft)
_ Min-Zeit 23:54 12:24 16:09 - 18:24 - - - - 22:39 03:39 18:24
Minimum _ 5,4 C 52 % 1024,5 hPa - 0,0 km/h (0 Bft) - - - - 3,1 C -0,4 C 0,0 km/h (0 Bft)
_ Max-Zeit 12:54 03:09 00:09 00:09 11:54 - - 00:09 00:09 14:39 17:39 11:54
Maximum _ 15,9 C 93 % 1028,5 hPa 0,0 l/m 29,1 km/h
W-SW (5 Bft)
- - 0 min 0 W/m 7,6 C 12,8 C 29,1 km/h
W-SW (5 Bft)
Durchschnitt _ 9,9 C 75 % 1026,1 hPa #0,0 l/m 12,6 km/h (2 Bft) W-SW - #0 min. 0 W/m 5,3 C 6,2 C 12,6 km/h (2 Bft)
copyright by Holger Just